Time;durP1;ratioP1;P1;durP2;ratioP2;P2;SDS_P1;SDS_P2;PMS_P1;PMS_P2;Temp;Humidity;BMP_temperature;BMP_pressure;BME280_temperature;BME280_humidity;BME280_pressure;Samples;Min_cycle;Max_cycle;Signal;HPM_P1;HPM_P2
2024/02/06 00:00:14;;;;;;;5.82;3.78;;;;;;;10.41;43.86;93782.84;523803;28;998;-63
2024/02/06 00:00:30;;;;;;;4.20;3.67;;;;;;;10.42;43.52;93783.56;523796;28;869;-63
2024/02/06 00:00:46;;;;;;;4.70;3.80;;;;;;;10.39;43.39;93782.63;523850;28;846;-62
2024/02/06 00:01:01;;;;;;;4.63;3.60;;;;;;;10.43;43.33;93785.03;523804;28;838;-62
2024/02/06 00:01:17;;;;;;;5.80;4.03;;;;;;;10.44;43.77;93790.03;523769;28;987;-62
2024/02/06 00:01:32;;;;;;;5.57;4.03;;;;;;;10.45;43.61;93779.72;523864;28;848;-63
2024/02/06 00:01:48;;;;;;;4.53;3.60;;;;;;;10.47;43.21;93783.44;523808;28;840;-62
2024/02/06 00:02:07;;;;;;;5.60;4.05;;;;;;;10.46;43.57;93779.19;523896;28;745;-63
2024/02/06 00:02:23;;;;;;;7.00;4.05;;;;;;;10.46;43.88;93778.47;523679;28;851;-63
2024/02/06 00:02:38;;;;;;;6.73;3.60;;;;;;;10.45;43.86;93783.22;523785;28;906;-63
2024/02/06 00:02:54;;;;;;;5.82;3.85;;;;;;;10.42;43.39;93778.78;523592;28;1039;-63
2024/02/06 00:03:09;;;;;;;5.57;4.10;;;;;;;10.40;43.21;93789.63;523625;28;923;-63
2024/02/06 00:03:24;;;;;;;5.15;3.95;;;;;;;10.40;43.67;93780.59;523643;28;800;-62
2024/02/06 00:03:40;;;;;;;4.57;3.50;;;;;;;10.34;43.34;93777.97;523691;28;772;-63
2024/02/06 00:03:55;;;;;;;4.53;3.33;;;;;;;10.34;43.51;93780.75;523960;28;1109;-63
2024/02/06 00:04:11;;;;;;;4.90;3.80;;;;;;;10.36;43.36;93786.47;525787;28;806;-62
2024/02/06 00:04:26;;;;;;;4.90;3.80;;;;;;;10.38;43.26;93783.91;525750;28;752;-62
2024/02/06 00:04:42;;;;;;;5.32;3.80;;;;;;;10.41;43.63;93782.09;525867;28;784;-62
2024/02/06 00:04:57;;;;;;;4.77;3.63;;;;;;;10.41;43.73;93787.59;523820;28;1313;-63
2024/02/06 00:05:13;;;;;;;5.20;3.53;;;;;;;10.40;43.43;93784.09;523741;28;1022;-63
2024/02/06 00:05:28;;;;;;;5.90;3.70;;;;;;;10.39;43.51;93790.91;523773;28;907;-62
2024/02/06 00:05:44;;;;;;;6.18;4.07;;;;;;;10.41;43.78;93793.88;523900;28;752;-63
2024/02/06 00:05:59;;;;;;;5.77;3.83;;;;;;;10.41;43.81;93795.88;523644;28;1922;-63
2024/02/06 00:06:14;;;;;;;4.43;3.40;;;;;;;10.43;43.31;93785.03;523840;28;914;-62
2024/02/06 00:06:30;;;;;;;4.53;3.40;;;;;;;10.43;43.48;93794.06;523787;28;819;-63
2024/02/06 00:06:45;;;;;;;4.00;3.27;;;;;;;10.43;43.26;93783.03;523918;28;840;-62
2024/02/06 00:07:01;;;;;;;4.95;3.38;;;;;;;10.44;43.46;93798.31;523812;28;757;-62
2024/02/06 00:07:16;;;;;;;4.97;3.47;;;;;;;10.39;43.78;93788.16;523777;28;788;-63
2024/02/06 00:07:33;;;;;;;4.38;3.45;;;;;;;10.38;43.71;93786.66;523840;28;816;-63
2024/02/06 00:07:49;;;;;;;4.50;3.60;;;;;;;10.37;43.54;93787.94;523830;28;831;-62
2024/02/06 00:08:05;;;;;;;4.43;3.70;;;;;;;10.36;43.52;93786.47;523776;28;914;-63
2024/02/06 00:08:20;;;;;;;4.83;4.03;;;;;;;10.38;43.78;93791.44;523826;28;753;-63
2024/02/06 00:08:37;;;;;;;5.20;4.18;;;;;;;10.40;43.47;93786.84;523837;28;1021;-62
2024/02/06 00:08:52;;;;;;;5.28;4.05;;;;;;;10.42;43.40;93784.31;523865;28;843;-63
2024/02/06 00:09:11;;;;;;;5.93;4.00;;;;;;;10.40;43.67;93789.63;523809;28;796;-63
2024/02/06 00:09:29;;;;;;;5.38;3.63;;;;;;;10.40;43.63;93788.88;523699;28;871;-63
2024/02/06 00:09:45;;;;;;;5.55;3.55;;;;;;;10.41;43.42;93790.38;523898;28;890;-63
2024/02/06 00:10:00;;;;;;;5.40;3.45;;;;;;;10.41;43.23;93795.88;523841;28;965;-62
2024/02/06 00:10:16;;;;;;;4.95;3.60;;;;;;;10.42;43.30;93794.59;523803;28;789;-63
2024/02/06 00:10:31;;;;;;;4.70;3.70;;;;;;;10.42;43.23;93792.59;523866;28;1067;-63
2024/02/06 00:10:47;;;;;;;4.13;3.60;;;;;;;10.42;43.44;93794.59;523724;28;907;-62
2024/02/06 00:11:02;;;;;;;4.97;3.55;;;;;;;10.42;43.46;93791.84;523928;28;765;-63
2024/02/06 00:11:18;;;;;;;5.40;3.63;;;;;;;10.43;43.22;93785.78;523755;28;851;-63
2024/02/06 00:11:33;;;;;;;5.20;3.70;;;;;;;10.41;43.41;93796.63;523899;28;910;-63
2024/02/06 00:11:49;;;;;;;4.30;3.33;;;;;;;10.43;43.05;93796.84;523800;28;761;-63
2024/02/06 00:12:05;;;;;;;4.30;3.33;;;;;;;10.46;43.27;93792.97;523784;28;792;-63
2024/02/06 00:12:20;;;;;;;4.65;3.58;;;;;;;10.47;43.27;93794.47;523695;28;852;-63
2024/02/06 00:12:36;;;;;;;4.20;3.47;;;;;;;10.49;43.06;93799.44;523831;28;757;-63
2024/02/06 00:12:51;;;;;;;4.80;3.60;;;;;;;10.46;43.13;93790.22;523836;28;835;-62
2024/02/06 00:13:07;;;;;;;4.97;3.50;;;;;;;10.45;42.95;93793.53;523788;28;852;-62
2024/02/06 00:13:22;;;;;;;4.50;3.40;;;;;;;10.46;43.14;93792.97;523808;28;800;-62
2024/02/06 00:13:37;;;;;;;4.57;3.83;;;;;;;10.46;43.22;93792.97;523758;28;827;-63
2024/02/06 00:13:53;;;;;;;4.88;3.85;;;;;;;10.48;43.27;93784.19;523957;28;847;-62
2024/02/06 00:14:10;;;;;;;4.63;3.73;;;;;;;10.49;42.78;93786.38;523784;28;808;-63
2024/02/06 00:14:25;;;;;;;4.18;3.60;;;;;;;10.49;42.91;93786.38;523804;28;852;-63
2024/02/06 00:14:41;;;;;;;4.73;3.60;;;;;;;10.49;43.20;93794.66;523913;28;1079;-62
2024/02/06 00:14:56;;;;;;;4.40;3.50;;;;;;;10.50;43.20;93787.84;523651;28;834;-63
2024/02/06 00:15:12;;;;;;;4.30;3.65;;;;;;;10.50;43.17;93793.38;523825;28;792;-62
2024/02/06 00:15:27;;;;;;;4.37;3.80;;;;;;;10.51;43.27;93789.34;523782;28;914;-63
2024/02/06 00:15:44;;;;;;;4.50;3.73;;;;;;;10.52;42.95;93795.63;523915;28;752;-63
2024/02/06 00:16:00;;;;;;;4.97;3.63;;;;;;;10.52;43.13;93793.59;523827;28;840;-63
2024/02/06 00:16:16;;;;;;;4.88;3.88;;;;;;;10.53;42.79;93789.53;523752;28;875;-63
2024/02/06 00:16:31;;;;;;;4.53;4.07;;;;;;;10.51;42.91;93792.09;523847;28;844;-63
2024/02/06 00:16:47;;;;;;;4.73;4.07;;;;;;;10.50;42.93;93785.09;523821;28;805;-62
2024/02/06 00:17:02;;;;;;;5.00;4.15;;;;;;;10.47;43.00;93793.72;523860;28;856;-63
2024/02/06 00:17:18;;;;;;;5.03;3.93;;;;;;;10.42;42.95;93783.56;523683;28;761;-63
2024/02/06 00:17:33;;;;;;;5.25;3.70;;;;;;;10.38;42.80;93783.91;523600;28;788;-63
2024/02/06 00:17:49;;;;;;;5.10;3.30;;;;;;;10.32;43.47;93788.06;523686;28;804;-63
2024/02/06 00:18:04;;;;;;;4.65;3.20;;;;;;;10.31;43.36;93781.81;523648;28;824;-63
2024/02/06 00:18:20;;;;;;;4.90;3.43;;;;;;;10.31;43.15;93792.84;523680;28;781;-62
2024/02/06 00:18:35;;;;;;;5.53;4.00;;;;;;;10.34;43.46;93793.78;523700;28;873;-62
2024/02/06 00:18:51;;;;;;;5.50;4.13;;;;;;;10.32;43.23;93785.31;523670;28;871;-63
2024/02/06 00:19:06;;;;;;;5.23;3.87;;;;;;;10.37;43.66;93795.50;523572;28;729;-63
2024/02/06 00:19:22;;;;;;;4.40;3.50;;;;;;;10.37;43.44;93790.69;523659;28;845;-63
2024/02/06 00:19:37;;;;;;;5.25;3.47;;;;;;;10.39;43.33;93796.44;523717;28;1918;-62
2024/02/06 00:19:53;;;;;;;4.83;3.53;;;;;;;10.40;43.24;93795.13;523894;28;816;-63
2024/02/06 00:20:08;;;;;;;3.90;3.50;;;;;;;10.38;43.12;93792.19;523785;28;760;-63
2024/02/06 00:20:24;;;;;;;4.67;3.73;;;;;;;10.38;43.13;93788.69;523734;28;741;-63
2024/02/06 00:20:39;;;;;;;5.70;3.65;;;;;;;10.40;42.92;93791.63;523806;28;860;-63
2024/02/06 00:20:55;;;;;;;5.30;3.57;;;;;;;10.40;43.01;93786.13;523851;28;745;-62
2024/02/06 00:21:10;;;;;;;5.93;3.67;;;;;;;10.41;42.55;93793.88;523890;28;760;-63
2024/02/06 00:21:26;;;;;;;5.00;3.25;;;;;;;10.43;42.83;93788.56;523747;28;895;-63
2024/02/06 00:21:41;;;;;;;4.97;3.33;;;;;;;10.43;43.29;93787.81;523812;28;768;-63
2024/02/06 00:21:56;;;;;;;5.65;3.85;;;;;;;10.43;43.41;93794.06;523798;28;823;-63
2024/02/06 00:22:12;;;;;;;5.30;4.10;;;;;;;10.42;42.96;93795.34;523846;28;856;-62
2024/02/06 00:22:27;;;;;;;5.50;3.93;;;;;;;10.42;43.41;93792.59;523650;28;917;-63
2024/02/06 00:22:43;;;;;;;5.57;3.70;;;;;;;10.41;43.24;93799.41;523943;28;902;-62
2024/02/06 00:22:59;;;;;;;5.43;3.55;;;;;;;10.43;43.29;93796.84;523800;28;788;-62
2024/02/06 00:23:14;;;;;;;5.23;3.70;;;;;;;10.41;43.00;93791.13;523786;28;800;-63
2024/02/06 00:23:30;;;;;;;4.47;3.72;;;;;;;10.40;43.02;93792.38;523777;28;845;-63
2024/02/06 00:23:45;;;;;;;4.23;3.73;;;;;;;10.42;43.14;93798.09;523845;28;756;-63
2024/02/06 00:24:03;;;;;;;4.82;3.85;;;;;;;10.31;43.21;93779.06;523827;28;825;-63
2024/02/06 00:24:19;;;;;;;4.75;3.65;;;;;;;10.47;43.21;93793.72;523696;28;901;-63
2024/02/06 00:24:34;;;;;;;4.23;3.27;;;;;;;10.48;42.83;93790.41;523810;28;827;-63
2024/02/06 00:24:50;;;;;;;4.40;3.40;;;;;;;10.50;42.94;93795.41;523634;28;824;-62
2024/02/06 00:25:06;;;;;;;4.33;3.53;;;;;;;10.50;42.60;93795.41;523590;28;867;-63
2024/02/06 00:25:21;;;;;;;4.80;3.63;;;;;;;10.52;42.74;93801.88;523557;28;861;-63
2024/02/06 00:25:37;;;;;;;5.20;3.70;;;;;;;10.52;42.85;93793.59;523680;28;745;-63
2024/02/06 00:25:53;;;;;;;4.93;3.70;;;;;;;10.53;42.77;93794.31;523638;28;979;-63
2024/02/06 00:26:09;;;;;;;4.53;3.78;;;;;;;10.54;42.55;93801.34;523655;28;785;-63
2024/02/06 00:26:24;;;;;;;4.13;3.73;;;;;;;10.54;42.64;93796.56;523609;28;892;-63
2024/02/06 00:26:41;;;;;;;4.93;3.83;;;;;;;10.53;42.42;93802.59;523733;28;765;-63
2024/02/06 00:26:56;;;;;;;5.00;3.55;;;;;;;10.50;42.90;93803.69;523874;28;1111;-63
2024/02/06 00:27:11;;;;;;;4.87;3.30;;;;;;;10.47;42.93;93793.72;523776;28;789;-63
2024/02/06 00:27:27;;;;;;;5.10;3.40;;;;;;;10.46;42.92;93801.25;523642;28;824;-63
2024/02/06 00:27:42;;;;;;;4.57;3.50;;;;;;;10.48;43.13;93809.03;523857;28;816;-63
2024/02/06 00:27:59;;;;;;;4.63;3.70;;;;;;;10.50;43.18;93798.91;523805;28;785;-63
2024/02/06 00:28:15;;;;;;;4.28;3.58;;;;;;;10.51;42.75;93805.91;523821;28;1611;-63
2024/02/06 00:28:30;;;;;;;4.70;3.70;;;;;;;10.53;43.04;93799.84;523806;28;868;-63
2024/02/06 00:28:46;;;;;;;5.82;3.70;;;;;;;10.51;42.65;93803.16;523783;28;792;-63
2024/02/06 00:29:01;;;;;;;4.83;3.50;;;;;;;10.48;43.21;93798.69;523837;28;784;-63
2024/02/06 00:29:17;;;;;;;5.07;3.60;;;;;;;10.46;43.26;93804.03;523766;28;851;-63
2024/02/06 00:29:32;;;;;;;5.93;3.53;;;;;;;10.47;42.91;93800.00;523926;28;761;-63
2024/02/06 00:29:54;;;;;;;5.67;3.60;;;;;;;10.45;43.32;93793.53;523775;28;825;-63
2024/02/06 00:30:10;;;;;;;5.97;3.50;;;;;;;10.43;43.39;93807.13;523671;28;907;-63
2024/02/06 00:30:25;;;;;;;5.80;3.65;;;;;;;10.43;43.20;93804.38;523773;28;828;-63
2024/02/06 00:30:41;;;;;;;4.30;3.80;;;;;;;10.43;43.24;93807.88;523846;28;764;-63
2024/02/06 00:30:56;;;;;;;5.07;4.13;;;;;;;10.46;43.05;93809.53;523813;28;781;-62
2024/02/06 00:31:12;;;;;;;6.17;4.13;;;;;;;10.47;42.89;93811.03;523839;28;887;-63
2024/02/06 00:31:27;;;;;;;5.85;3.72;;;;;;;10.50;43.02;93809.94;523737;28;764;-62
2024/02/06 00:31:43;;;;;;;6.53;3.53;;;;;;;10.47;42.71;93808.28;523886;28;832;-62
2024/02/06 00:31:58;;;;;;;5.20;3.30;;;;;;;10.48;42.81;93804.22;523782;28;828;-63
2024/02/06 00:32:14;;;;;;;3.50;3.20;;;;;;;10.50;42.97;93811.97;523779;28;891;-63
2024/02/06 00:32:29;;;;;;;4.22;3.40;;;;;;;10.49;42.80;93799.44;523802;28;761;-62
2024/02/06 00:32:45;;;;;;;4.40;3.50;;;;;;;10.50;42.82;93801.66;523770;28;844;-63
2024/02/06 00:33:00;;;;;;;4.00;3.40;;;;;;;10.54;42.90;93809.63;523782;28;765;-62
2024/02/06 00:33:16;;;;;;;4.80;3.47;;;;;;;10.54;42.88;93809.63;523813;28;772;-63
2024/02/06 00:33:31;;;;;;;7.10;4.05;;;;;;;10.54;42.68;93806.84;523869;28;844;-63
2024/02/06 00:33:47;;;;;;;6.10;4.30;;;;;;;10.53;42.41;93799.84;523794;28;848;-62
2024/02/06 00:34:03;;;;;;;4.78;3.88;;;;;;;10.52;42.70;93812.94;523889;28;749;-63
2024/02/06 00:34:19;;;;;;;4.28;3.83;;;;;;;10.50;42.65;93807.19;523647;28;903;-62
2024/02/06 00:34:34;;;;;;;4.60;3.83;;;;;;;10.45;42.91;93802.56;523881;28;887;-63
2024/02/06 00:34:49;;;;;;;5.17;3.60;;;;;;;10.50;42.92;93800.94;523785;28;930;-63
2024/02/06 00:35:05;;;;;;;4.97;3.60;;;;;;;10.49;42.90;93808.47;523831;28;745;-63
2024/02/06 00:35:21;;;;;;;4.45;3.50;;;;;;;10.51;42.80;93802.41;523865;28;809;-63
2024/02/06 00:35:36;;;;;;;4.28;3.50;;;;;;;10.51;42.78;93805.16;523735;28;829;-63
2024/02/06 00:35:52;;;;;;;5.57;4.00;;;;;;;10.52;42.96;93801.13;523772;28;1080;-63
2024/02/06 00:36:07;;;;;;;5.50;3.92;;;;;;;10.52;43.26;93806.66;523839;28;789;-63
2024/02/06 00:36:22;;;;;;;5.30;3.40;;;;;;;10.54;42.67;93801.34;523790;28;823;-63
2024/02/06 00:36:38;;;;;;;4.90;3.53;;;;;;;10.54;42.84;93807.59;523780;28;906;-62
2024/02/06 00:36:53;;;;;;;4.82;4.00;;;;;;;10.56;42.74;93807.06;523795;28;820;-62
2024/02/06 00:37:09;;;;;;;5.67;4.10;;;;;;;10.57;42.87;93808.53;523722;28;808;-63
2024/02/06 00:37:24;;;;;;;6.43;3.88;;;;;;;10.57;42.72;93812.03;523724;28;760;-63
2024/02/06 00:37:40;;;;;;;6.50;4.00;;;;;;;10.57;42.69;93817.56;523787;28;769;-63
2024/02/06 00:37:57;;;;;;;4.97;3.90;;;;;;;10.57;42.56;93809.28;523741;28;805;-63
2024/02/06 00:38:13;;;;;;;4.65;3.70;;;;;;;10.50;42.81;93811.97;523900;28;840;-63
2024/02/06 00:38:28;;;;;;;5.18;3.80;;;;;;;10.50;42.88;93806.47;523699;28;1076;-63
2024/02/06 00:38:45;;;;;;;4.50;3.67;;;;;;;10.49;43.09;93811.22;523870;28;772;-63
2024/02/06 00:39:00;;;;;;;3.72;3.33;;;;;;;10.50;42.80;93800.94;523818;28;805;-63
2024/02/06 00:39:16;;;;;;;3.93;3.30;;;;;;;10.51;43.01;93805.16;523795;28;793;-63
2024/02/06 00:39:31;;;;;;;5.17;3.70;;;;;;;10.51;42.99;93808.66;523682;28;1943;-63
2024/02/06 00:39:47;;;;;;;4.90;3.60;;;;;;;10.54;43.07;93804.09;523759;28;881;-63
2024/02/06 00:40:03;;;;;;;4.15;3.55;;;;;;;10.47;43.27;93804.75;523907;28;852;-62
2024/02/06 00:40:18;;;;;;;4.20;3.53;;;;;;;10.48;42.99;93811.78;523677;28;879;-63
2024/02/06 00:40:34;;;;;;;3.90;3.33;;;;;;;10.44;43.00;93806.59;523872;28;860;-63
2024/02/06 00:40:49;;;;;;;3.92;3.50;;;;;;;10.43;42.95;93807.13;523830;28;756;-62
2024/02/06 00:41:05;;;;;;;4.10;3.60;;;;;;;10.43;42.98;93812.66;523839;28;789;-63
2024/02/06 00:41:21;;;;;;;3.97;3.40;;;;;;;10.41;43.33;93813.19;523733;28;1012;-63
2024/02/06 00:41:37;;;;;;;3.80;3.13;;;;;;;10.37;42.96;93806.53;523808;28;871;-63
2024/02/06 00:41:52;;;;;;;4.28;3.35;;;;;;;10.36;43.19;93808.53;523844;28;1119;-63
2024/02/06 00:42:09;;;;;;;4.90;3.80;;;;;;;10.33;43.43;93814.41;523781;28;800;-63
2024/02/06 00:42:25;;;;;;;4.32;3.63;;;;;;;10.33;43.23;93817.88;523735;28;803;-62
2024/02/06 00:42:41;;;;;;;4.00;3.38;;;;;;;10.32;43.46;93805.38;523746;28;745;-63
2024/02/06 00:42:57;;;;;;;4.38;3.50;;;;;;;10.32;43.17;93810.91;523831;28;820;-62
2024/02/06 00:43:12;;;;;;;4.73;3.50;;;;;;;10.32;43.33;93810.16;523876;28;836;-63
2024/02/06 00:43:28;;;;;;;4.25;3.42;;;;;;;10.27;43.08;93809.00;523724;28;860;-63
2024/02/06 00:43:44;;;;;;;5.22;3.50;;;;;;;10.27;43.31;93808.25;523890;28;808;-63
2024/02/06 00:43:59;;;;;;;5.80;3.40;;;;;;;10.19;43.70;93812.97;523803;28;788;-63
2024/02/06 00:44:14;;;;;;;4.03;3.38;;;;;;;10.15;43.74;93813.31;523803;28;784;-63
2024/02/06 00:44:30;;;;;;;4.20;3.50;;;;;;;10.14;43.40;93809.06;523756;28;876;-63
2024/02/06 00:44:45;;;;;;;5.10;3.50;;;;;;;10.07;43.82;93812.44;523869;28;772;-63
2024/02/06 00:45:02;;;;;;;4.47;3.35;;;;;;;10.05;43.66;93808.78;523853;28;765;-62
2024/02/06 00:45:18;;;;;;;3.72;3.33;;;;;;;10.01;43.88;93808.34;523616;28;978;-63
2024/02/06 00:45:33;;;;;;;4.45;3.45;;;;;;;9.84;44.32;93814.25;523903;28;872;-62
2024/02/06 00:45:51;;;;;;;4.70;3.47;;;;;;;9.70;44.29;93810.06;523726;28;773;-62
2024/02/06 00:46:06;;;;;;;4.43;3.35;;;;;;;9.60;44.71;93807.00;523804;28;1199;-63
2024/02/06 00:46:21;;;;;;;3.90;3.37;;;;;;;9.46;44.68;93805.56;523763;28;914;-63
2024/02/06 00:46:37;;;;;;;4.20;3.63;;;;;;;9.44;44.52;93804.59;523751;28;796;-63
2024/02/06 00:46:52;;;;;;;4.30;3.50;;;;;;;9.43;44.96;93808.63;523818;28;799;-63
2024/02/06 00:47:08;;;;;;;4.22;3.42;;;;;;;9.43;44.79;93814.13;523750;28;785;-63
2024/02/06 00:47:23;;;;;;;4.20;3.33;;;;;;;9.44;44.84;93816.34;523797;28;867;-63
2024/02/06 00:47:39;;;;;;;3.85;3.40;;;;;;;9.29;44.91;93793.38;523798;28;907;-62
2024/02/06 00:47:55;;;;;;;3.97;3.40;;;;;;;9.48;44.79;93819.53;523753;28;807;-63
2024/02/06 00:48:10;;;;;;;4.20;3.60;;;;;;;9.48;44.81;93825.06;523684;28;859;-63
2024/02/06 00:48:25;;;;;;;4.83;4.00;;;;;;;9.50;44.79;93816.25;523741;28;796;-62
2024/02/06 00:48:41;;;;;;;5.70;4.10;;;;;;;9.50;44.87;93814.22;523838;28;752;-62
2024/02/06 00:48:56;;;;;;;4.47;3.53;;;;;;;9.50;45.16;93822.50;523830;28;772;-63
2024/02/06 00:49:12;;;;;;;4.40;3.42;;;;;;;9.51;45.24;93817.72;523808;28;840;-62
2024/02/06 00:49:27;;;;;;;4.93;3.77;;;;;;;9.50;45.20;93819.75;523757;28;835;-63
2024/02/06 00:49:43;;;;;;;4.33;3.57;;;;;;;9.44;45.13;93818.38;523870;28;733;-62
2024/02/06 00:49:58;;;;;;;4.65;3.53;;;;;;;9.32;45.24;93819.84;523761;28;898;-62
2024/02/06 00:50:14;;;;;;;5.50;3.90;;;;;;;9.04;45.58;93809.41;523798;28;757;-63
2024/02/06 00:50:30;;;;;;;4.70;3.60;;;;;;;8.91;46.14;93815.66;523774;28;926;-63
2024/02/06 00:50:45;;;;;;;4.50;3.60;;;;;;;8.82;46.32;93818.81;523854;28;831;-62
2024/02/06 00:51:01;;;;;;;4.57;3.70;;;;;;;8.80;46.50;93817.84;523778;28;828;-62
2024/02/06 00:51:16;;;;;;;4.40;3.70;;;;;;;8.79;46.36;93814.34;523752;28;843;-63
2024/02/06 00:51:32;;;;;;;4.25;3.35;;;;;;;8.81;46.23;93809.09;523786;28;871;-62
2024/02/06 00:51:47;;;;;;;4.50;3.43;;;;;;;8.84;46.32;93816.28;523681;28;741;-62
2024/02/06 00:52:03;;;;;;;5.00;4.13;;;;;;;8.88;46.19;93818.72;523907;28;836;-62
2024/02/06 00:52:18;;;;;;;4.80;4.07;;;;;;;8.92;46.28;93819.16;523612;28;835;-63
2024/02/06 00:52:34;;;;;;;4.22;3.83;;;;;;;8.93;46.27;93824.13;523884;28;796;-62
2024/02/06 00:52:49;;;;;;;4.37;3.73;;;;;;;8.95;46.38;93816.06;523720;28;884;-62
2024/02/06 00:53:05;;;;;;;5.70;4.17;;;;;;;8.99;46.29;93815.75;523854;28;761;-63
2024/02/06 00:53:20;;;;;;;5.28;4.20;;;;;;;8.95;46.73;93813.31;523716;28;1052;-62
2024/02/06 00:53:36;;;;;;;3.90;3.53;;;;;;;8.90;46.97;93810.69;523760;28;768;-62
2024/02/06 00:53:51;;;;;;;4.05;3.60;;;;;;;8.83;46.70;93812.06;523812;28;793;-62
2024/02/06 00:54:07;;;;;;;5.10;3.67;;;;;;;8.82;46.52;93809.81;523748;28;856;-62
2024/02/06 00:54:22;;;;;;;5.88;4.15;;;;;;;8.82;46.74;93812.56;523801;28;788;-62
2024/02/06 00:54:38;;;;;;;6.50;4.93;;;;;;;8.80;46.74;93813.09;523803;28;761;-62
2024/02/06 00:54:53;;;;;;;6.18;5.13;;;;;;;8.83;46.44;93808.53;523889;28;911;-62
2024/02/06 00:55:08;;;;;;;7.43;5.23;;;;;;;8.83;46.89;93814.81;523720;28;785;-63
2024/02/06 00:55:24;;;;;;;7.05;4.95;;;;;;;8.81;46.76;93811.84;523836;28;804;-62
2024/02/06 00:55:39;;;;;;;5.87;4.90;;;;;;;8.81;46.56;93814.59;523840;28;792;-62
2024/02/06 00:55:55;;;;;;;6.77;4.93;;;;;;;8.81;46.51;93814.59;523790;28;793;-62
2024/02/06 00:56:10;;;;;;;6.70;4.97;;;;;;;8.81;46.39;93816.59;523820;28;864;-63
2024/02/06 00:56:26;;;;;;;6.73;5.03;;;;;;;8.80;46.48;93804.09;523650;28;796;-62
2024/02/06 00:56:41;;;;;;;7.53;5.28;;;;;;;8.81;46.43;93813.84;523818;28;872;-62
2024/02/06 00:56:57;;;;;;;7.93;5.80;;;;;;;8.82;46.45;93807.06;523779;28;906;-63
2024/02/06 00:57:12;;;;;;;7.25;5.50;;;;;;;8.83;46.43;93812.06;523869;28;812;-62
2024/02/06 00:57:28;;;;;;;7.97;5.27;;;;;;;8.84;46.52;93813.53;523714;28;852;-62
2024/02/06 00:57:43;;;;;;;9.13;5.75;;;;;;;8.85;46.30;93817.78;523824;28;844;-63
2024/02/06 00:57:59;;;;;;;8.43;5.97;;;;;;;8.85;46.41;93814.25;523662;28;848;-63
2024/02/06 00:58:14;;;;;;;8.30;5.68;;;;;;;8.85;46.34;93819.78;523779;28;864;-62
2024/02/06 00:58:30;;;;;;;7.97;5.10;;;;;;;8.85;46.21;93811.50;523797;28;1090;-62
2024/02/06 00:58:45;;;;;;;6.40;4.45;;;;;;;8.85;46.54;93814.25;523820;28;813;-62
2024/02/06 00:59:01;;;;;;;5.30;4.23;;;;;;;8.83;46.42;93812.06;523739;28;1218;-62
2024/02/06 00:59:16;;;;;;;7.10;4.82;;;;;;;8.61;46.85;93795.94;524086;28;812;-62
2024/02/06 00:59:32;;;;;;;7.73;5.00;;;;;;;8.66;46.83;93813.63;524176;28;1964;-63
2024/02/06 00:59:47;;;;;;;5.82;4.63;;;;;;;8.52;47.16;93809.34;524206;28;868;-62
2024/02/06 01:00:03;;;;;;;5.20;4.43;;;;;;;8.38;47.96;93816.84;524307;28;840;-62
2024/02/06 01:00:19;;;;;;;6.32;4.88;;;;;;;8.34;48.15;93811.63;524123;28;825;-63
2024/02/06 01:00:35;;;;;;;7.43;5.47;;;;;;;8.34;47.77;93816.41;524169;28;824;-62
2024/02/06 01:00:51;;;;;;;7.82;5.18;;;;;;;8.31;48.00;93812.72;524209;28;737;-62
2024/02/06 01:01:06;;;;;;;8.20;4.83;;;;;;;8.31;48.03;93817.47;524232;28;781;-63
2024/02/06 01:01:22;;;;;;;6.97;4.53;;;;;;;8.29;48.16;93820.72;524209;28;789;-63
2024/02/06 01:01:37;;;;;;;6.00;4.60;;;;;;;8.23;48.69;93817.28;524179;28;832;-62
2024/02/06 01:01:53;;;;;;;7.47;5.00;;;;;;;8.24;48.40;93809.78;524164;28;764;-63
2024/02/06 01:02:08;;;;;;;8.55;5.35;;;;;;;8.24;48.57;93812.53;524123;28;772;-62
2024/02/06 01:02:25;;;;;;;7.47;5.33;;;;;;;8.25;48.27;93808.53;524210;28;895;-63
2024/02/06 01:02:40;;;;;;;6.35;4.55;;;;;;;8.27;48.57;93811.53;524209;28;927;-62
2024/02/06 01:02:56;;;;;;;4.57;3.70;;;;;;;8.27;48.59;93817.03;524126;28;780;-62
2024/02/06 01:03:11;;;;;;;4.18;3.47;;;;;;;8.28;48.46;93813.00;524249;28;850;-62
2024/02/06 01:03:27;;;;;;;6.00;3.80;;;;;;;8.29;48.57;93820.00;524057;28;732;-62
2024/02/06 01:03:42;;;;;;;6.05;4.03;;;;;;;8.31;48.69;93817.47;524221;28;843;-62
2024/02/06 01:03:58;;;;;;;5.10;4.10;;;;;;;8.27;48.90;93812.25;524060;28;1108;-63
2024/02/06 01:04:13;;;;;;;6.20;4.60;;;;;;;8.21;48.97;93817.06;524256;28;780;-63
2024/02/06 01:04:29;;;;;;;6.30;4.95;;;;;;;8.21;48.87;93813.56;524211;28;808;-62
2024/02/06 01:04:45;;;;;;;6.25;4.50;;;;;;;8.21;48.85;93814.31;524265;28;1183;-62
2024/02/06 01:05:01;;;;;;;5.83;3.93;;;;;;;8.21;48.83;93821.81;526211;28;787;-62
2024/02/06 01:05:17;;;;;;;4.80;4.10;;;;;;;8.19;48.93;93814.09;526269;28;1119;-63
2024/02/06 01:05:32;;;;;;;5.13;4.30;;;;;;;8.21;49.01;93821.81;526293;28;882;-62
2024/02/06 01:05:47;;;;;;;5.05;3.92;;;;;;;8.22;48.66;93826.81;526095;28;1185;-63
2024/02/06 01:06:03;;;;;;;4.30;3.53;;;;;;;8.22;48.98;93820.56;526287;28;779;-62
2024/02/06 01:06:20;;;;;;;4.30;3.70;;;;;;;8.21;49.07;93822.56;526011;28;807;-62
2024/02/06 01:06:35;;;;;;;4.65;3.70;;;;;;;8.23;49.17;93827.53;526082;28;895;-62
2024/02/06 01:06:51;;;;;;;4.10;3.40;;;;;;;8.25;49.02;93822.28;526176;28;764;-62
2024/02/06 01:07:06;;;;;;;4.43;3.72;;;;;;;8.25;48.98;93830.53;526109;28;837;-62
2024/02/06 01:07:22;;;;;;;6.40;4.93;;;;;;;8.21;49.32;93821.81;526069;28;827;-63
2024/02/06 01:07:37;;;;;;;7.55;5.82;;;;;;;8.13;49.35;93831.97;526071;28;823;-62
2024/02/06 01:07:53;;;;;;;6.53;5.20;;;;;;;8.07;49.44;93828.56;526132;28;808;-63
2024/02/06 01:08:09;;;;;;;6.90;4.50;;;;;;;7.93;49.73;93825.00;526059;28;772;-63
2024/02/06 01:08:24;;;;;;;8.03;4.77;;;;;;;7.87;49.92;93823.59;526306;28;855;-61
2024/02/06 01:08:39;;;;;;;7.95;5.70;;;;;;;7.86;50.10;93831.09;526329;28;780;-63
2024/02/06 01:08:55;;;;;;;8.17;5.57;;;;;;;7.87;49.93;93827.09;526275;28;976;-62
2024/02/06 01:09:11;;;;;;;6.18;4.78;;;;;;;7.91;49.76;93821.28;526352;28;914;-63
2024/02/06 01:09:26;;;;;;;5.17;4.67;;;;;;;7.94;49.98;93826.50;526064;28;802;-62
2024/02/06 01:09:42;;;;;;;5.72;4.70;;;;;;;7.91;50.21;93826.78;526360;28;756;-63
2024/02/06 01:09:57;;;;;;;5.90;4.67;;;;;;;7.89;50.38;93829.31;526277;28;753;-62
2024/02/06 01:10:13;;;;;;;6.30;4.90;;;;;;;7.75;50.18;93805.81;526239;28;839;-62
2024/02/06 01:10:28;;;;;;;6.53;5.20;;;;;;;7.91;50.24;93826.78;526231;28;886;-62
2024/02/06 01:10:44;;;;;;;6.70;5.25;;;;;;;7.81;50.68;93820.94;526377;28;799;-62
2024/02/06 01:10:59;;;;;;;6.50;5.10;;;;;;;7.80;50.63;93818.69;526281;28;796;-62
2024/02/06 01:11:15;;;;;;;6.35;4.43;;;;;;;7.75;50.56;93814.78;526286;28;862;-62
2024/02/06 01:11:31;;;;;;;5.47;3.78;;;;;;;7.76;50.72;93813.53;526263;28;831;-62
2024/02/06 01:11:46;;;;;;;4.43;3.67;;;;;;;7.81;50.56;93820.19;526211;28;749;-63
2024/02/06 01:12:02;;;;;;;4.80;3.70;;;;;;;7.79;50.74;93820.72;526305;28;744;-63
2024/02/06 01:12:17;;;;;;;5.00;3.67;;;;;;;7.78;50.79;93815.72;526172;28;811;-62
2024/02/06 01:12:33;;;;;;;5.45;3.50;;;;;;;7.77;50.69;93820.50;526349;28;780;-62
2024/02/06 01:12:48;;;;;;;6.27;3.77;;;;;;;7.78;50.49;93821.22;526275;28;886;-62
2024/02/06 01:13:04;;;;;;;5.25;3.65;;;;;;;7.80;50.60;93821.44;526198;28;788;-62
2024/02/06 01:13:19;;;;;;;4.93;3.50;;;;;;;7.80;50.42;93821.44;526150;28;890;-62
2024/02/06 01:13:35;;;;;;;4.75;3.70;;;;;;;7.81;50.39;93825.69;526269;28;831;-62
2024/02/06 01:13:52;;;;;;;4.17;3.57;;;;;;;7.80;50.63;93822.19;526259;28;792;-62
2024/02/06 01:14:07;;;;;;;5.05;3.40;;;;;;;7.81;50.27;93820.94;526350;28;820;-62
2024/02/06 01:14:23;;;;;;;4.68;3.22;;;;;;;7.82;50.34;93819.66;526196;28;772;-62
2024/02/06 01:14:38;;;;;;;4.20;3.60;;;;;;;7.82;50.64;93816.19;526221;28;823;-62
2024/02/06 01:14:55;;;;;;;4.35;3.80;;;;;;;7.74;51.02;93818.03;526301;28;772;-63
2024/02/06 01:15:10;;;;;;;4.40;3.75;;;;;;;7.72;50.82;93817.81;526257;28;934;-63
2024/02/06 01:15:26;;;;;;;4.22;3.50;;;;;;;7.69;50.80;93818.88;526197;28;846;-62
2024/02/06 01:15:41;;;;;;;4.97;3.53;;;;;;;7.67;50.82;93821.41;526283;28;764;-63
2024/02/06 01:15:57;;;;;;;5.55;4.00;;;;;;;7.67;50.83;93816.63;526239;28;768;-63
2024/02/06 01:16:12;;;;;;;5.33;4.10;;;;;;;7.67;51.01;93818.66;526327;28;752;-62
2024/02/06 01:16:27;;;;;;;7.60;4.27;;;;;;;7.68;50.85;93825.63;526231;28;796;-63
2024/02/06 01:16:43;;;;;;;7.25;4.15;;;;;;;7.68;51.13;93815.38;526330;28;728;-62